Hauptseite
METAR-TAF:

METAR-TAF

Flughäfen :

Flughafen Bahrain

Bahrain, Bahrain

Breite: 26-16N, Länge: 050-39E, Höhe: 2 m

Beobachtung

Neuester Wetterbericht von vor 24 Minuten, um 00:00 UTC
Wind 2 kt aus unterschiedlichen Richtungen
Temperatur 24°C
Luftfeuchtigkeit 65%
Luftdruck 1009 hPa
Sichtweite 10 km oder mehr
keine Wolken unter 1500 m und keine Kumulonimbus oder Gewitterwolken

METAR: OBBI 030000Z VRB02KT CAVOK 24/17 Q1009 NOSIG

Zeit: 03:24 (00:24 UTC)

Prognose

Neuester Wetterbericht von vor 1 Stunde und 24 Minuten, um 23:00 UTC
Gültige Prognose vom 03 um 00 UTC bis 04 um 06 UTC
Wind 12 kt aus Ost/Südost
Sichtweite 10 km oder mehr
keine Wolken unter 1500 m und keine Kumulonimbus oder Gewitterwolken
Übergehend zu
vom 03 um 20 UTC bis 03 um 22 UTC
Wind 10 kt aus Nord

TAF: OBBI 022300Z 0300/0406 12012KT CAVOK BECMG 0320/0322 01010KT

Wetterbeobachtungen und Prognosen von mehr als 4000 Flughäfen (METAR und TAF Bericht).

Die verfügbaren Stationen werden durch gelbe und rote Markierungen auf der Karte dargestellt.

Führen Sie die Maus auf sie, um den Namen der Station zu sehen.

Darauf klicken, um die Beobachtung von Wetterbeobachtungen und Prognosen zu sehen.

Um die Karte zu ändern : klicken Sie auf den grünen Tasten mit einem schwarzen Kreuz Zum Vergrößern, auf den grünen Button mit einem Gedankenstrich zu verkleinern, oder auf die grünen Pfeile für benachbarte Karten.


METAR-TAF: